sensor_id;sensor_type;location;lat;lon;timestamp;temperature;humidity
774;DHT22;370;48.810;9.150;2024-01-25T00:01:46;10.50;1.00
774;DHT22;370;48.810;9.150;2024-01-25T00:04:13;10.50;1.00
774;DHT22;370;48.810;9.150;2024-01-25T00:06:41;10.60;1.00
774;DHT22;370;48.810;9.150;2024-01-25T00:09:07;10.60;1.00
774;DHT22;370;48.810;9.150;2024-01-25T00:11:34;10.60;1.00
774;DHT22;370;48.810;9.150;2024-01-25T00:14:01;10.60;1.00
774;DHT22;370;48.810;9.150;2024-01-25T00:16:28;10.60;1.00
774;DHT22;370;48.810;9.150;2024-01-25T00:18:55;10.60;1.00
774;DHT22;370;48.810;9.150;2024-01-25T00:21:21;10.70;1.00
774;DHT22;370;48.810;9.150;2024-01-25T00:23:50;10.60;1.00
774;DHT22;370;48.810;9.150;2024-01-25T00:26:16;10.70;1.00
774;DHT22;370;48.810;9.150;2024-01-25T00:28:43;10.70;1.00
774;DHT22;370;48.810;9.150;2024-01-25T00:31:10;10.70;1.00
774;DHT22;370;48.810;9.150;2024-01-25T00:33:37;10.70;1.00
774;DHT22;370;48.810;9.150;2024-01-25T00:36:04;10.70;1.00
774;DHT22;370;48.810;9.150;2024-01-25T00:38:32;10.70;1.00
774;DHT22;370;48.810;9.150;2024-01-25T00:41:00;10.70;1.00
774;DHT22;370;48.810;9.150;2024-01-25T00:43:27;10.70;1.00
774;DHT22;370;48.810;9.150;2024-01-25T00:45:55;10.70;1.00
774;DHT22;370;48.810;9.150;2024-01-25T00:48:22;10.70;1.00
774;DHT22;370;48.810;9.150;2024-01-25T00:50:49;10.70;1.00
774;DHT22;370;48.810;9.150;2024-01-25T00:53:16;10.70;1.00
774;DHT22;370;48.810;9.150;2024-01-25T00:55:44;10.80;1.00
774;DHT22;370;48.810;9.150;2024-01-25T00:58:13;10.80;1.00
774;DHT22;370;48.810;9.150;2024-01-25T01:00:40;10.80;1.00
774;DHT22;370;48.810;9.150;2024-01-25T01:03:08;10.80;1.00
774;DHT22;370;48.810;9.150;2024-01-25T01:05:36;10.80;1.00
774;DHT22;370;48.810;9.150;2024-01-25T01:08:04;10.80;1.00
774;DHT22;370;48.810;9.150;2024-01-25T01:10:31;10.90;1.00
774;DHT22;370;48.810;9.150;2024-01-25T01:12:58;10.80;1.00
774;DHT22;370;48.810;9.150;2024-01-25T01:15:26;10.80;1.00
774;DHT22;370;48.810;9.150;2024-01-25T01:17:53;10.90;1.00
774;DHT22;370;48.810;9.150;2024-01-25T01:20:20;10.80;1.00
774;DHT22;370;48.810;9.150;2024-01-25T01:22:46;10.90;1.00
774;DHT22;370;48.810;9.150;2024-01-25T01:25:13;10.90;1.00
774;DHT22;370;48.810;9.150;2024-01-25T01:27:40;10.90;1.00
774;DHT22;370;48.810;9.150;2024-01-25T01:30:08;10.90;1.00
774;DHT22;370;48.810;9.150;2024-01-25T01:32:36;10.90;1.00
774;DHT22;370;48.810;9.150;2024-01-25T01:35:03;10.90;1.00
774;DHT22;370;48.810;9.150;2024-01-25T01:37:30;10.90;1.00
774;DHT22;370;48.810;9.150;2024-01-25T01:39:57;10.90;1.00
774;DHT22;370;48.810;9.150;2024-01-25T01:42:24;10.90;1.00
774;DHT22;370;48.810;9.150;2024-01-25T01:44:52;10.90;1.00
774;DHT22;370;48.810;9.150;2024-01-25T01:47:19;10.90;1.00
774;DHT22;370;48.810;9.150;2024-01-25T01:49:47;10.90;1.00
774;DHT22;370;48.810;9.150;2024-01-25T01:52:14;10.90;1.00
774;DHT22;370;48.810;9.150;2024-01-25T01:54:42;10.90;1.00
774;DHT22;370;48.810;9.150;2024-01-25T01:57:09;10.90;1.00
774;DHT22;370;48.810;9.150;2024-01-25T01:59:36;10.90;1.00
774;DHT22;370;48.810;9.150;2024-01-25T02:02:03;10.90;1.00
774;DHT22;370;48.810;9.150;2024-01-25T02:04:29;10.90;1.00
774;DHT22;370;48.810;9.150;2024-01-25T02:06:58;10.80;1.00
774;DHT22;370;48.810;9.150;2024-01-25T02:09:24;10.80;1.00
774;DHT22;370;48.810;9.150;2024-01-25T02:11:59;10.80;1.00
774;DHT22;370;48.810;9.150;2024-01-25T02:14:26;10.80;1.00
774;DHT22;370;48.810;9.150;2024-01-25T02:16:53;10.80;1.00
774;DHT22;370;48.810;9.150;2024-01-25T02:19:20;10.70;1.00
774;DHT22;370;48.810;9.150;2024-01-25T02:21:47;10.70;1.00
774;DHT22;370;48.810;9.150;2024-01-25T02:24:16;10.70;1.00
774;DHT22;370;48.810;9.150;2024-01-25T02:26:43;10.70;1.00
774;DHT22;370;48.810;9.150;2024-01-25T02:29:11;10.70;1.00
774;DHT22;370;48.810;9.150;2024-01-25T02:31:38;10.60;1.00
774;DHT22;370;48.810;9.150;2024-01-25T02:34:09;10.70;1.00
774;DHT22;370;48.810;9.150;2024-01-25T02:36:37;10.70;1.00
774;DHT22;370;48.810;9.150;2024-01-25T02:39:07;10.60;1.00
774;DHT22;370;48.810;9.150;2024-01-25T02:41:36;10.70;1.00
774;DHT22;370;48.810;9.150;2024-01-25T02:44:03;10.60;1.00
774;DHT22;370;48.810;9.150;2024-01-25T02:46:30;10.60;1.00
774;DHT22;370;48.810;9.150;2024-01-25T02:48:57;10.60;1.00
774;DHT22;370;48.810;9.150;2024-01-25T02:51:24;10.60;1.00
774;DHT22;370;48.810;9.150;2024-01-25T02:53:51;10.60;1.00
774;DHT22;370;48.810;9.150;2024-01-25T02:56:18;10.50;1.00
774;DHT22;370;48.810;9.150;2024-01-25T02:58:46;10.60;1.00
774;DHT22;370;48.810;9.150;2024-01-25T03:01:13;10.50;1.00
774;DHT22;370;48.810;9.150;2024-01-25T03:03:40;10.50;1.00
774;DHT22;370;48.810;9.150;2024-01-25T03:06:07;10.60;1.00
774;DHT22;370;48.810;9.150;2024-01-25T03:08:34;10.50;1.00
774;DHT22;370;48.810;9.150;2024-01-25T03:11:01;10.50;1.00
774;DHT22;370;48.810;9.150;2024-01-25T03:13:30;10.50;1.00
774;DHT22;370;48.810;9.150;2024-01-25T03:16:00;10.50;1.00
774;DHT22;370;48.810;9.150;2024-01-25T03:18:30;10.50;1.00
774;DHT22;370;48.810;9.150;2024-01-25T03:20:57;10.50;1.00
774;DHT22;370;48.810;9.150;2024-01-25T03:23:24;10.50;1.00
774;DHT22;370;48.810;9.150;2024-01-25T03:25:51;10.50;1.00
774;DHT22;370;48.810;9.150;2024-01-25T03:28:18;10.40;1.00
774;DHT22;370;48.810;9.150;2024-01-25T03:30:44;10.40;1.00
774;DHT22;370;48.810;9.150;2024-01-25T03:33:13;10.40;1.00
774;DHT22;370;48.810;9.150;2024-01-25T03:35:39;10.40;1.00
774;DHT22;370;48.810;9.150;2024-01-25T03:38:06;10.40;1.00
774;DHT22;370;48.810;9.150;2024-01-25T03:40:33;10.50;1.00
774;DHT22;370;48.810;9.150;2024-01-25T03:43:00;10.40;1.00
774;DHT22;370;48.810;9.150;2024-01-25T03:45:26;10.40;1.00
774;DHT22;370;48.810;9.150;2024-01-25T03:47:56;10.40;1.00
774;DHT22;370;48.810;9.150;2024-01-25T03:50:24;10.50;1.00
774;DHT22;370;48.810;9.150;2024-01-25T03:52:51;10.40;1.00
774;DHT22;370;48.810;9.150;2024-01-25T03:55:18;10.40;1.00
774;DHT22;370;48.810;9.150;2024-01-25T03:57:45;10.40;1.00
774;DHT22;370;48.810;9.150;2024-01-25T04:00:12;10.40;1.00
774;DHT22;370;48.810;9.150;2024-01-25T04:02:40;10.30;1.00
774;DHT22;370;48.810;9.150;2024-01-25T04:05:07;10.30;1.00
774;DHT22;370;48.810;9.150;2024-01-25T04:07:35;10.20;1.00
774;DHT22;370;48.810;9.150;2024-01-25T04:10:02;10.30;1.00
774;DHT22;370;48.810;9.150;2024-01-25T04:12:29;10.20;1.00
774;DHT22;370;48.810;9.150;2024-01-25T04:14:57;10.20;1.00
774;DHT22;370;48.810;9.150;2024-01-25T04:17:24;10.30;1.00
774;DHT22;370;48.810;9.150;2024-01-25T04:19:50;10.30;1.00
774;DHT22;370;48.810;9.150;2024-01-25T04:22:17;10.20;1.00
774;DHT22;370;48.810;9.150;2024-01-25T04:24:45;10.10;1.00
774;DHT22;370;48.810;9.150;2024-01-25T04:27:14;10.10;1.00
774;DHT22;370;48.810;9.150;2024-01-25T04:29:40;10.10;1.00
774;DHT22;370;48.810;9.150;2024-01-25T04:32:08;10.10;1.00
774;DHT22;370;48.810;9.150;2024-01-25T04:34:35;10.10;1.00
774;DHT22;370;48.810;9.150;2024-01-25T04:37:02;10.00;1.00
774;DHT22;370;48.810;9.150;2024-01-25T04:39:28;9.90;1.00
774;DHT22;370;48.810;9.150;2024-01-25T04:41:57;9.90;1.00
774;DHT22;370;48.810;9.150;2024-01-25T04:44:23;9.90;1.00
774;DHT22;370;48.810;9.150;2024-01-25T04:46:50;9.80;1.00
774;DHT22;370;48.810;9.150;2024-01-25T04:49:19;9.80;1.00
774;DHT22;370;48.810;9.150;2024-01-25T04:51:45;9.80;1.00
774;DHT22;370;48.810;9.150;2024-01-25T04:54:12;9.80;1.00
774;DHT22;370;48.810;9.150;2024-01-25T04:56:40;9.80;1.00
774;DHT22;370;48.810;9.150;2024-01-25T04:59:08;9.80;1.00
774;DHT22;370;48.810;9.150;2024-01-25T05:01:36;9.80;1.00
774;DHT22;370;48.810;9.150;2024-01-25T05:04:03;9.80;1.00
774;DHT22;370;48.810;9.150;2024-01-25T05:06:30;9.70;1.00
774;DHT22;370;48.810;9.150;2024-01-25T05:08:56;9.70;1.00
774;DHT22;370;48.810;9.150;2024-01-25T05:11:23;9.70;1.00
774;DHT22;370;48.810;9.150;2024-01-25T05:13:50;9.60;1.00
774;DHT22;370;48.810;9.150;2024-01-25T05:16:18;9.40;1.00
774;DHT22;370;48.810;9.150;2024-01-25T05:18:45;9.30;1.00
774;DHT22;370;48.810;9.150;2024-01-25T05:21:12;9.20;1.00
774;DHT22;370;48.810;9.150;2024-01-25T05:23:38;9.10;1.00
774;DHT22;370;48.810;9.150;2024-01-25T05:26:06;9.00;1.00
774;DHT22;370;48.810;9.150;2024-01-25T05:28:33;9.00;1.00
774;DHT22;370;48.810;9.150;2024-01-25T05:30:59;8.90;1.00
774;DHT22;370;48.810;9.150;2024-01-25T05:33:27;8.80;1.00
774;DHT22;370;48.810;9.150;2024-01-25T05:35:54;8.70;1.00
774;DHT22;370;48.810;9.150;2024-01-25T05:38:21;8.70;1.00
774;DHT22;370;48.810;9.150;2024-01-25T05:40:48;8.60;1.00
774;DHT22;370;48.810;9.150;2024-01-25T05:43:14;8.60;1.00
774;DHT22;370;48.810;9.150;2024-01-25T05:45:41;8.50;1.00
774;DHT22;370;48.810;9.150;2024-01-25T05:48:08;8.40;1.10
774;DHT22;370;48.810;9.150;2024-01-25T05:50:36;8.30;1.30
774;DHT22;370;48.810;9.150;2024-01-25T05:53:03;8.30;1.80
774;DHT22;370;48.810;9.150;2024-01-25T05:55:30;8.30;1.60
774;DHT22;370;48.810;9.150;2024-01-25T05:57:57;8.20;2.40
774;DHT22;370;48.810;9.150;2024-01-25T06:00:23;8.20;2.90
774;DHT22;370;48.810;9.150;2024-01-25T06:02:50;8.10;3.70
774;DHT22;370;48.810;9.150;2024-01-25T06:05:17;8.10;4.50
774;DHT22;370;48.810;9.150;2024-01-25T06:07:45;8.10;4.50
774;DHT22;370;48.810;9.150;2024-01-25T06:10:12;8.10;5.90
774;DHT22;370;48.810;9.150;2024-01-25T06:12:38;8.00;7.60
774;DHT22;370;48.810;9.150;2024-01-25T06:15:07;8.00;8.10
774;DHT22;370;48.810;9.150;2024-01-25T06:17:33;7.90;9.10
774;DHT22;370;48.810;9.150;2024-01-25T06:20:01;7.80;10.00
774;DHT22;370;48.810;9.150;2024-01-25T06:22:30;7.70;11.10
774;DHT22;370;48.810;9.150;2024-01-25T06:24:59;7.80;13.10
774;DHT22;370;48.810;9.150;2024-01-25T06:27:25;7.80;13.10
774;DHT22;370;48.810;9.150;2024-01-25T06:29:52;7.70;13.50
774;DHT22;370;48.810;9.150;2024-01-25T06:32:20;7.60;14.70
774;DHT22;370;48.810;9.150;2024-01-25T06:34:47;7.60;16.80
774;DHT22;370;48.810;9.150;2024-01-25T06:37:13;7.50;17.50
774;DHT22;370;48.810;9.150;2024-01-25T06:39:44;7.50;19.00
774;DHT22;370;48.810;9.150;2024-01-25T06:42:12;7.50;19.10
774;DHT22;370;48.810;9.150;2024-01-25T06:44:39;7.50;19.60
774;DHT22;370;48.810;9.150;2024-01-25T06:47:06;7.50;19.50
774;DHT22;370;48.810;9.150;2024-01-25T06:49:33;7.40;20.40
774;DHT22;370;48.810;9.150;2024-01-25T06:51:59;7.40;19.90
774;DHT22;370;48.810;9.150;2024-01-25T06:54:26;7.40;21.20
774;DHT22;370;48.810;9.150;2024-01-25T06:56:53;7.40;20.00
774;DHT22;370;48.810;9.150;2024-01-25T06:59:23;7.40;21.30
774;DHT22;370;48.810;9.150;2024-01-25T07:01:50;7.30;21.30
774;DHT22;370;48.810;9.150;2024-01-25T07:04:16;7.40;21.40
774;DHT22;370;48.810;9.150;2024-01-25T07:06:44;7.40;21.30
774;DHT22;370;48.810;9.150;2024-01-25T07:09:10;7.40;21.40
774;DHT22;370;48.810;9.150;2024-01-25T07:11:37;7.40;21.00
774;DHT22;370;48.810;9.150;2024-01-25T07:14:04;7.40;20.40
774;DHT22;370;48.810;9.150;2024-01-25T07:16:32;7.40;21.20
774;DHT22;370;48.810;9.150;2024-01-25T07:18:59;7.40;20.50
774;DHT22;370;48.810;9.150;2024-01-25T07:21:26;7.40;19.80
774;DHT22;370;48.810;9.150;2024-01-25T07:23:53;7.50;19.70
774;DHT22;370;48.810;9.150;2024-01-25T07:26:19;7.40;18.90
774;DHT22;370;48.810;9.150;2024-01-25T07:28:47;7.40;19.60
774;DHT22;370;48.810;9.150;2024-01-25T07:31:14;7.40;19.00
774;DHT22;370;48.810;9.150;2024-01-25T07:33:42;7.40;17.70
774;DHT22;370;48.810;9.150;2024-01-25T07:36:09;7.40;16.60
774;DHT22;370;48.810;9.150;2024-01-25T07:38:35;7.50;16.60
774;DHT22;370;48.810;9.150;2024-01-25T07:41:02;7.50;16.20
774;DHT22;370;48.810;9.150;2024-01-25T07:43:29;7.50;16.20
774;DHT22;370;48.810;9.150;2024-01-25T07:45:55;7.50;15.90
774;DHT22;370;48.810;9.150;2024-01-25T07:48:22;7.50;15.80
774;DHT22;370;48.810;9.150;2024-01-25T07:50:50;7.60;16.30
774;DHT22;370;48.810;9.150;2024-01-25T07:53:17;7.70;15.90
774;DHT22;370;48.810;9.150;2024-01-25T07:55:44;7.70;15.20
774;DHT22;370;48.810;9.150;2024-01-25T07:58:10;7.80;13.70
774;DHT22;370;48.810;9.150;2024-01-25T08:00:37;7.90;13.30
774;DHT22;370;48.810;9.150;2024-01-25T08:03:04;8.00;12.60
774;DHT22;370;48.810;9.150;2024-01-25T08:05:31;8.00;11.50
774;DHT22;370;48.810;9.150;2024-01-25T08:08:00;8.10;10.90
774;DHT22;370;48.810;9.150;2024-01-25T08:10:27;8.20;9.00
774;DHT22;370;48.810;9.150;2024-01-25T08:12:54;8.30;7.50
774;DHT22;370;48.810;9.150;2024-01-25T08:15:20;8.50;6.70
774;DHT22;370;48.810;9.150;2024-01-25T08:17:47;8.50;5.10
774;DHT22;370;48.810;9.150;2024-01-25T08:20:14;8.60;4.90
774;DHT22;370;48.810;9.150;2024-01-25T08:22:40;8.70;4.90
774;DHT22;370;48.810;9.150;2024-01-25T08:25:09;8.80;2.80
774;DHT22;370;48.810;9.150;2024-01-25T08:27:37;8.90;2.00
774;DHT22;370;48.810;9.150;2024-01-25T08:30:04;9.00;2.00
774;DHT22;370;48.810;9.150;2024-01-25T08:32:31;9.20;1.00
774;DHT22;370;48.810;9.150;2024-01-25T08:34:58;9.30;1.00
774;DHT22;370;48.810;9.150;2024-01-25T08:37:25;9.40;1.00
774;DHT22;370;48.810;9.150;2024-01-25T08:39:51;9.50;1.00
774;DHT22;370;48.810;9.150;2024-01-25T08:42:19;9.70;1.00
774;DHT22;370;48.810;9.150;2024-01-25T08:44:47;9.70;1.00
774;DHT22;370;48.810;9.150;2024-01-25T08:47:15;9.80;1.00
774;DHT22;370;48.810;9.150;2024-01-25T08:49:42;10.00;1.00
774;DHT22;370;48.810;9.150;2024-01-25T08:52:08;10.20;1.00
774;DHT22;370;48.810;9.150;2024-01-25T08:54:35;10.30;1.00
774;DHT22;370;48.810;9.150;2024-01-25T08:57:03;10.40;1.00
774;DHT22;370;48.810;9.150;2024-01-25T08:59:32;10.40;1.00
774;DHT22;370;48.810;9.150;2024-01-25T09:02:00;10.60;1.00
774;DHT22;370;48.810;9.150;2024-01-25T09:04:27;10.70;1.00
774;DHT22;370;48.810;9.150;2024-01-25T09:06:54;10.80;1.00
774;DHT22;370;48.810;9.150;2024-01-25T09:09:21;10.90;1.00
774;DHT22;370;48.810;9.150;2024-01-25T09:11:47;11.20;1.00
774;DHT22;370;48.810;9.150;2024-01-25T09:14:14;11.80;1.00
774;DHT22;370;48.810;9.150;2024-01-25T09:16:42;13.70;1.00
774;DHT22;370;48.810;9.150;2024-01-25T09:19:09;15.60;1.00
774;DHT22;370;48.810;9.150;2024-01-25T09:21:38;17.30;1.00
774;DHT22;370;48.810;9.150;2024-01-25T09:24:05;19.00;1.00
774;DHT22;370;48.810;9.150;2024-01-25T09:26:32;20.10;1.00
774;DHT22;370;48.810;9.150;2024-01-25T09:28:59;21.40;1.00
774;DHT22;370;48.810;9.150;2024-01-25T09:31:26;22.70;1.00
774;DHT22;370;48.810;9.150;2024-01-25T09:33:54;23.50;1.00
774;DHT22;370;48.810;9.150;2024-01-25T09:36:20;24.20;1.00
774;DHT22;370;48.810;9.150;2024-01-25T09:38:47;24.60;1.00
774;DHT22;370;48.810;9.150;2024-01-25T09:41:14;25.20;1.00
774;DHT22;370;48.810;9.150;2024-01-25T09:43:41;25.60;1.00
774;DHT22;370;48.810;9.150;2024-01-25T09:46:11;25.50;1.00
774;DHT22;370;48.810;9.150;2024-01-25T09:48:39;24.90;1.00
774;DHT22;370;48.810;9.150;2024-01-25T09:51:11;24.30;1.00
774;DHT22;370;48.810;9.150;2024-01-25T09:53:40;23.40;1.00
774;DHT22;370;48.810;9.150;2024-01-25T09:56:08;22.40;1.00
774;DHT22;370;48.810;9.150;2024-01-25T09:58:39;22.10;1.00
774;DHT22;370;48.810;9.150;2024-01-25T10:01:11;22.00;1.00
774;DHT22;370;48.810;9.150;2024-01-25T10:03:39;22.10;1.00
774;DHT22;370;48.810;9.150;2024-01-25T10:06:09;21.70;1.00
774;DHT22;370;48.810;9.150;2024-01-25T10:11:58;20.30;1.00
774;DHT22;370;48.810;9.150;2024-01-25T10:14:25;19.90;1.00
774;DHT22;370;48.810;9.150;2024-01-25T10:16:52;20.10;1.00
774;DHT22;370;48.810;9.150;2024-01-25T10:19:20;19.90;1.00
774;DHT22;370;48.810;9.150;2024-01-25T10:21:48;19.40;1.00
774;DHT22;370;48.810;9.150;2024-01-25T10:24:16;19.00;1.00
774;DHT22;370;48.810;9.150;2024-01-25T10:26:42;19.20;1.00
774;DHT22;370;48.810;9.150;2024-01-25T10:29:09;18.80;1.00
774;DHT22;370;48.810;9.150;2024-01-25T10:31:38;18.10;1.00
774;DHT22;370;48.810;9.150;2024-01-25T10:34:07;17.60;1.00
774;DHT22;370;48.810;9.150;2024-01-25T10:36:35;17.20;1.00
774;DHT22;370;48.810;9.150;2024-01-25T10:39:03;16.90;1.00
774;DHT22;370;48.810;9.150;2024-01-25T10:41:32;16.80;1.00
774;DHT22;370;48.810;9.150;2024-01-25T10:44:00;16.80;1.00
774;DHT22;370;48.810;9.150;2024-01-25T10:46:28;17.00;1.00
774;DHT22;370;48.810;9.150;2024-01-25T10:48:56;17.60;1.00
774;DHT22;370;48.810;9.150;2024-01-25T10:51:24;19.20;1.00
774;DHT22;370;48.810;9.150;2024-01-25T10:53:51;20.60;1.00
774;DHT22;370;48.810;9.150;2024-01-25T10:56:19;22.50;1.00
774;DHT22;370;48.810;9.150;2024-01-25T10:58:46;23.60;1.00
774;DHT22;370;48.810;9.150;2024-01-25T11:01:13;23.80;1.00
774;DHT22;370;48.810;9.150;2024-01-25T11:03:40;23.80;1.00
774;DHT22;370;48.810;9.150;2024-01-25T11:06:08;23.90;1.00
774;DHT22;370;48.810;9.150;2024-01-25T11:08:35;23.30;1.00
774;DHT22;370;48.810;9.150;2024-01-25T11:11:05;22.60;1.00
774;DHT22;370;48.810;9.150;2024-01-25T11:13:35;22.90;1.00
774;DHT22;370;48.810;9.150;2024-01-25T11:16:15;23.60;1.00
774;DHT22;370;48.810;9.150;2024-01-25T11:18:49;22.70;1.00
774;DHT22;370;48.810;9.150;2024-01-25T11:21:25;22.60;1.00
774;DHT22;370;48.810;9.150;2024-01-25T11:23:59;22.10;1.00
774;DHT22;370;48.810;9.150;2024-01-25T11:26:27;23.40;1.00
774;DHT22;370;48.810;9.150;2024-01-25T11:28:55;24.30;1.00
774;DHT22;370;48.810;9.150;2024-01-25T11:31:22;24.70;1.00
774;DHT22;370;48.810;9.150;2024-01-25T11:33:50;23.80;1.00
774;DHT22;370;48.810;9.150;2024-01-25T11:36:20;23.30;1.00
774;DHT22;370;48.810;9.150;2024-01-25T11:38:48;23.30;1.00
774;DHT22;370;48.810;9.150;2024-01-25T11:41:14;22.80;1.00
774;DHT22;370;48.810;9.150;2024-01-25T11:43:42;23.50;1.00
774;DHT22;370;48.810;9.150;2024-01-25T11:46:10;22.90;1.00
774;DHT22;370;48.810;9.150;2024-01-25T11:48:39;21.80;1.00
774;DHT22;370;48.810;9.150;2024-01-25T11:51:06;21.10;1.00
774;DHT22;370;48.810;9.150;2024-01-25T11:53:33;20.20;1.00
774;DHT22;370;48.810;9.150;2024-01-25T11:56:00;19.80;1.00
774;DHT22;370;48.810;9.150;2024-01-25T11:58:27;19.10;1.00
774;DHT22;370;48.810;9.150;2024-01-25T12:00:54;18.30;1.00
774;DHT22;370;48.810;9.150;2024-01-25T12:03:22;18.00;1.00
774;DHT22;370;48.810;9.150;2024-01-25T12:05:49;17.60;1.00
774;DHT22;370;48.810;9.150;2024-01-25T12:08:17;17.20;1.00
774;DHT22;370;48.810;9.150;2024-01-25T12:10:43;17.60;1.00
774;DHT22;370;48.810;9.150;2024-01-25T12:13:10;17.80;1.00
774;DHT22;370;48.810;9.150;2024-01-25T12:15:37;19.30;1.00
774;DHT22;370;48.810;9.150;2024-01-25T12:18:05;21.00;1.00
774;DHT22;370;48.810;9.150;2024-01-25T12:20:35;22.70;1.00
774;DHT22;370;48.810;9.150;2024-01-25T12:23:02;22.80;1.00
774;DHT22;370;48.810;9.150;2024-01-25T12:25:30;22.80;1.00
774;DHT22;370;48.810;9.150;2024-01-25T12:27:57;23.40;1.00
774;DHT22;370;48.810;9.150;2024-01-25T12:30:24;24.20;1.00
774;DHT22;370;48.810;9.150;2024-01-25T12:32:51;25.20;1.00
774;DHT22;370;48.810;9.150;2024-01-25T12:35:17;25.60;1.00
774;DHT22;370;48.810;9.150;2024-01-25T12:37:45;26.60;1.00
774;DHT22;370;48.810;9.150;2024-01-25T12:40:12;27.70;1.00
774;DHT22;370;48.810;9.150;2024-01-25T12:42:39;29.50;1.00
774;DHT22;370;48.810;9.150;2024-01-25T12:45:06;30.50;1.00
774;DHT22;370;48.810;9.150;2024-01-25T12:47:33;30.70;1.00
774;DHT22;370;48.810;9.150;2024-01-25T12:50:00;30.70;1.00
774;DHT22;370;48.810;9.150;2024-01-25T12:52:26;30.80;1.00
774;DHT22;370;48.810;9.150;2024-01-25T12:54:54;31.00;1.00
774;DHT22;370;48.810;9.150;2024-01-25T12:57:21;30.30;1.00
774;DHT22;370;48.810;9.150;2024-01-25T12:59:48;28.90;1.00
774;DHT22;370;48.810;9.150;2024-01-25T13:02:15;26.40;1.00
774;DHT22;370;48.810;9.150;2024-01-25T13:04:42;24.40;1.00
774;DHT22;370;48.810;9.150;2024-01-25T13:07:08;22.70;1.00
774;DHT22;370;48.810;9.150;2024-01-25T13:09:35;21.20;1.00
774;DHT22;370;48.810;9.150;2024-01-25T13:12:04;19.60;1.00
774;DHT22;370;48.810;9.150;2024-01-25T13:14:31;18.60;1.00
774;DHT22;370;48.810;9.150;2024-01-25T13:16:58;17.60;1.00
774;DHT22;370;48.810;9.150;2024-01-25T13:19:25;17.00;1.00
774;DHT22;370;48.810;9.150;2024-01-25T13:21:52;16.20;1.00
774;DHT22;370;48.810;9.150;2024-01-25T13:24:18;15.60;1.00
774;DHT22;370;48.810;9.150;2024-01-25T13:26:45;15.20;1.00
774;DHT22;370;48.810;9.150;2024-01-25T13:29:16;15.10;1.00
774;DHT22;370;48.810;9.150;2024-01-25T13:31:42;14.90;1.00
774;DHT22;370;48.810;9.150;2024-01-25T13:34:09;14.60;1.00
774;DHT22;370;48.810;9.150;2024-01-25T13:36:36;14.40;1.00
774;DHT22;370;48.810;9.150;2024-01-25T13:39:26;14.30;1.00
774;DHT22;370;48.810;9.150;2024-01-25T13:42:08;13.80;1.00
774;DHT22;370;48.810;9.150;2024-01-25T13:44:36;13.60;1.00
774;DHT22;370;48.810;9.150;2024-01-25T13:47:07;13.50;1.00
774;DHT22;370;48.810;9.150;2024-01-25T13:49:34;13.50;1.00
774;DHT22;370;48.810;9.150;2024-01-25T13:52:01;13.40;1.00
774;DHT22;370;48.810;9.150;2024-01-25T13:54:29;13.20;1.00
774;DHT22;370;48.810;9.150;2024-01-25T13:56:55;13.10;1.00
774;DHT22;370;48.810;9.150;2024-01-25T13:59:22;13.10;1.00
774;DHT22;370;48.810;9.150;2024-01-25T14:01:52;13.10;1.00
774;DHT22;370;48.810;9.150;2024-01-25T14:04:19;12.90;1.00
774;DHT22;370;48.810;9.150;2024-01-25T14:06:45;12.90;1.00
774;DHT22;370;48.810;9.150;2024-01-25T14:09:12;12.90;1.00
774;DHT22;370;48.810;9.150;2024-01-25T14:11:39;12.90;1.00
774;DHT22;370;48.810;9.150;2024-01-25T14:14:05;13.00;1.00
774;DHT22;370;48.810;9.150;2024-01-25T14:16:32;13.00;1.00
774;DHT22;370;48.810;9.150;2024-01-25T14:19:00;13.00;1.00
774;DHT22;370;48.810;9.150;2024-01-25T14:21:29;12.80;1.00
774;DHT22;370;48.810;9.150;2024-01-25T14:23:55;12.80;1.00
774;DHT22;370;48.810;9.150;2024-01-25T14:26:22;12.70;1.00
774;DHT22;370;48.810;9.150;2024-01-25T14:28:49;12.70;1.00
774;DHT22;370;48.810;9.150;2024-01-25T14:31:15;12.60;1.00
774;DHT22;370;48.810;9.150;2024-01-25T14:33:42;12.50;1.00
774;DHT22;370;48.810;9.150;2024-01-25T14:36:10;12.40;1.00
774;DHT22;370;48.810;9.150;2024-01-25T14:38:37;12.20;1.00
774;DHT22;370;48.810;9.150;2024-01-25T14:41:08;12.20;1.00
774;DHT22;370;48.810;9.150;2024-01-25T14:43:36;12.10;1.00
774;DHT22;370;48.810;9.150;2024-01-25T14:46:03;12.10;1.00
774;DHT22;370;48.810;9.150;2024-01-25T14:48:30;12.00;1.00
774;DHT22;370;48.810;9.150;2024-01-25T14:50:57;12.00;1.00
774;DHT22;370;48.810;9.150;2024-01-25T14:53:25;12.00;1.00
774;DHT22;370;48.810;9.150;2024-01-25T14:55:52;12.10;1.00
774;DHT22;370;48.810;9.150;2024-01-25T14:58:18;12.20;1.00
774;DHT22;370;48.810;9.150;2024-01-25T15:00:47;12.30;1.00
774;DHT22;370;48.810;9.150;2024-01-25T15:03:14;12.30;1.00
774;DHT22;370;48.810;9.150;2024-01-25T15:05:43;12.30;1.00
774;DHT22;370;48.810;9.150;2024-01-25T15:08:10;12.30;1.00
774;DHT22;370;48.810;9.150;2024-01-25T15:10:38;12.30;1.00
774;DHT22;370;48.810;9.150;2024-01-25T15:13:05;12.30;1.00
774;DHT22;370;48.810;9.150;2024-01-25T15:15:32;12.30;1.00
774;DHT22;370;48.810;9.150;2024-01-25T15:17:59;12.10;1.00
774;DHT22;370;48.810;9.150;2024-01-25T15:20:25;12.10;1.00
774;DHT22;370;48.810;9.150;2024-01-25T15:22:53;12.10;1.00
774;DHT22;370;48.810;9.150;2024-01-25T15:25:22;12.10;1.00
774;DHT22;370;48.810;9.150;2024-01-25T15:27:51;12.10;1.00
774;DHT22;370;48.810;9.150;2024-01-25T15:30:18;12.10;1.00
774;DHT22;370;48.810;9.150;2024-01-25T15:32:45;12.10;1.00
774;DHT22;370;48.810;9.150;2024-01-25T15:35:12;12.00;1.00
774;DHT22;370;48.810;9.150;2024-01-25T15:37:39;12.00;1.00
774;DHT22;370;48.810;9.150;2024-01-25T15:40:07;12.00;1.00
774;DHT22;370;48.810;9.150;2024-01-25T15:42:37;12.00;1.00
774;DHT22;370;48.810;9.150;2024-01-25T15:45:06;12.00;1.00
774;DHT22;370;48.810;9.150;2024-01-25T15:47:33;12.00;1.00
774;DHT22;370;48.810;9.150;2024-01-25T15:50:00;12.00;1.00
774;DHT22;370;48.810;9.150;2024-01-25T15:52:30;11.90;1.00
774;DHT22;370;48.810;9.150;2024-01-25T15:54:57;11.90;1.00
774;DHT22;370;48.810;9.150;2024-01-25T15:57:24;11.80;1.00
774;DHT22;370;48.810;9.150;2024-01-25T15:59:50;11.80;1.00
774;DHT22;370;48.810;9.150;2024-01-25T16:02:19;11.70;1.00
774;DHT22;370;48.810;9.150;2024-01-25T16:04:45;11.70;1.00
774;DHT22;370;48.810;9.150;2024-01-25T16:07:12;11.70;1.00
774;DHT22;370;48.810;9.150;2024-01-25T16:09:39;11.60;1.00
774;DHT22;370;48.810;9.150;2024-01-25T16:12:08;11.60;1.00
774;DHT22;370;48.810;9.150;2024-01-25T16:14:34;11.70;1.00
774;DHT22;370;48.810;9.150;2024-01-25T16:17:01;11.60;1.00
774;DHT22;370;48.810;9.150;2024-01-25T16:19:30;11.60;1.00
774;DHT22;370;48.810;9.150;2024-01-25T16:21:56;11.60;1.00
774;DHT22;370;48.810;9.150;2024-01-25T16:24:23;11.60;1.00
774;DHT22;370;48.810;9.150;2024-01-25T16:26:50;11.60;1.00
774;DHT22;370;48.810;9.150;2024-01-25T16:29:17;11.60;1.00
774;DHT22;370;48.810;9.150;2024-01-25T16:31:44;11.60;1.00
774;DHT22;370;48.810;9.150;2024-01-25T16:34:11;11.60;1.00
774;DHT22;370;48.810;9.150;2024-01-25T16:36:40;11.60;1.00
774;DHT22;370;48.810;9.150;2024-01-25T16:39:06;11.60;1.00
774;DHT22;370;48.810;9.150;2024-01-25T16:41:33;11.60;1.00
774;DHT22;370;48.810;9.150;2024-01-25T16:44:00;11.60;1.00
774;DHT22;370;48.810;9.150;2024-01-25T16:46:27;11.60;1.00
774;DHT22;370;48.810;9.150;2024-01-25T16:48:55;11.60;1.00
774;DHT22;370;48.810;9.150;2024-01-25T16:51:22;11.50;1.00
774;DHT22;370;48.810;9.150;2024-01-25T16:53:50;11.50;1.00
774;DHT22;370;48.810;9.150;2024-01-25T16:56:17;11.50;1.00
774;DHT22;370;48.810;9.150;2024-01-25T16:58:43;11.50;1.00